Time;durP1;ratioP1;P1;durP2;ratioP2;P2;SDS_P1;SDS_P2;PMS_P1;PMS_P2;Temp;Humidity;BMP_temperature;BMP_pressure;BME280_temperature;BME280_humidity;BME280_pressure;Samples;Min_cycle;Max_cycle;Signal;HPM_P1;HPM_P2
2022/09/11 00:01:13;;;;;;;8.98;7.25;;;;;;;17.25;85.33;93312.16;5070808;28;20456;-36
2022/09/11 00:03:38;;;;;;;10.13;7.20;;;;;;;17.22;85.54;93302.16;5085050;28;20031;-36
2022/09/11 00:06:06;;;;;;;11.18;8.20;;;;;;;17.17;86.18;93313.66;5089468;28;20034;-36
2022/09/11 00:08:32;;;;;;;11.77;7.88;;;;;;;17.23;86.65;93314.81;5070424;28;20017;-35
2022/09/11 00:11:12;;;;;;;10.18;8.00;;;;;;;17.34;85.97;93305.06;5070420;28;20032;-35
2022/09/11 00:13:39;;;;;;;9.50;7.57;;;;;;;17.33;86.87;93307.09;5052225;28;20086;-35
2022/09/11 00:16:06;;;;;;;15.68;9.07;;;;;;;17.36;87.07;93313.56;5070034;28;20039;-36
2022/09/11 00:18:36;;;;;;;10.80;8.68;;;;;;;17.41;86.50;93313.22;5072060;28;20033;-36
2022/09/11 00:21:03;;;;;;;14.18;9.30;;;;;;;17.40;86.53;93308.25;5090415;28;20020;-36
2022/09/11 00:23:28;;;;;;;11.73;7.70;;;;;;;17.53;86.16;93307.00;5090620;28;20027;-36
2022/09/11 00:25:54;;;;;;;8.73;7.32;;;;;;;17.31;86.08;93278.31;5079829;28;20580;-35
2022/09/11 00:28:22;;;;;;;9.98;7.60;;;;;;;17.58;86.04;93306.69;5077556;28;20013;-36
2022/09/11 00:31:11;;;;;;;10.80;7.90;;;;;;;17.50;85.79;93305.41;5090360;28;20450;-36
2022/09/11 00:33:37;;;;;;;13.07;8.20;;;;;;;17.44;86.01;93298.06;5090059;28;20043;-35
2022/09/11 00:36:06;;;;;;;10.95;7.47;;;;;;;17.48;86.46;93303.19;5090121;28;20035;-35
2022/09/11 00:38:34;;;;;;;18.10;7.70;;;;;;;17.60;85.74;93300.50;5089986;28;20047;-35
2022/09/11 00:41:02;;;;;;;8.37;7.47;;;;;;;17.65;84.95;93299.44;5072033;28;20426;-35
2022/09/11 00:43:29;;;;;;;15.70;11.27;;;;;;;17.61;85.45;93299.88;5090201;28;20039;-35
2022/09/11 00:45:58;;;;;;;10.70;8.20;;;;;;;17.64;85.17;93304.28;5092112;28;20081;-35
2022/09/11 00:48:26;;;;;;;12.05;8.65;;;;;;;17.63;85.11;93304.91;5094069;28;20454;-35
2022/09/11 00:50:54;;;;;;;13.85;10.27;;;;;;;17.70;84.73;93307.47;5075713;28;20020;-36
2022/09/11 00:53:20;;;;;;;11.13;7.90;;;;;;;17.77;83.92;93306.53;5075811;28;20035;-35
2022/09/11 00:55:50;;;;;;;12.30;9.30;;;;;;;17.76;83.91;93305.06;5075510;28;20035;-35
2022/09/11 00:58:20;;;;;;;10.68;8.52;;;;;;;17.72;83.84;93295.69;5075531;28;20055;-35
2022/09/11 01:00:45;;;;;;;10.30;7.88;;;;;;;17.74;83.80;93296.56;5093427;28;20028;-35
2022/09/11 01:03:11;;;;;;;11.40;7.80;;;;;;;17.62;83.29;93287.41;5093499;28;20039;-35
2022/09/11 01:05:39;;;;;;;11.45;8.10;;;;;;;17.68;83.23;93301.00;5093431;28;20052;-35
2022/09/11 01:08:05;;;;;;;10.73;7.37;;;;;;;17.49;83.70;93301.13;5093744;28;20406;-35
2022/09/11 01:10:49;;;;;;;10.07;7.97;;;;;;;17.56;83.61;93300.97;5093668;28;20020;-35
2022/09/11 01:13:18;;;;;;;13.90;8.13;;;;;;;17.41;84.07;93304.13;5093240;28;20137;-35
2022/09/11 01:16:22;;;;;;;9.57;7.40;;;;;;;17.47;84.69;93298.94;5093168;28;20039;-36
2022/09/11 01:19:19;;;;;;;13.35;8.10;;;;;;;17.48;85.18;93311.56;5084108;28;20021;-36
2022/09/11 01:21:57;;;;;;;9.90;7.95;;;;;;;17.51;85.77;93301.28;5072885;28;20032;-35
2022/09/11 01:24:47;;;;;;;13.70;7.38;;;;;;;17.57;85.46;93298.88;5072944;28;20025;-35
2022/09/11 01:27:39;;;;;;;9.18;7.32;;;;;;;17.55;85.40;93299.50;5072834;28;20028;-36
2022/09/11 01:30:08;;;;;;;8.57;6.70;;;;;;;17.60;84.74;93297.72;5073043;28;20027;-36
2022/09/11 01:32:33;;;;;;;10.23;6.75;;;;;;;17.60;85.08;93306.81;5071837;28;20028;-36
2022/09/11 01:35:36;;;;;;;13.45;7.38;;;;;;;17.55;85.23;93299.50;5072634;28;20034;-36
2022/09/11 01:38:10;;;;;;;12.07;7.80;;;;;;;17.65;85.01;93305.72;5072784;28;20020;-36
2022/09/11 01:40:44;;;;;;;8.48;7.10;;;;;;;17.70;84.82;93307.47;5071649;28;20036;-36
2022/09/11 01:43:16;;;;;;;9.38;7.57;;;;;;;17.72;85.15;93304.06;5055080;28;20035;-36
2022/09/11 01:45:45;;;;;;;9.32;7.10;;;;;;;17.66;85.47;93298.09;5071310;28;20049;-36
2022/09/11 01:48:14;;;;;;;9.25;7.25;;;;;;;17.71;85.71;93302.63;5071600;28;20095;-37
2022/09/11 01:50:41;;;;;;;9.07;7.10;;;;;;;17.03;85.63;93189.97;5072293;28;20024;-37
2022/09/11 01:53:08;;;;;;;9.93;7.40;;;;;;;17.84;85.59;93293.69;5072270;28;20512;-36
2022/09/11 01:55:48;;;;;;;12.15;9.40;;;;;;;17.82;85.97;93297.06;5058039;28;20440;-36
2022/09/11 01:58:22;;;;;;;12.85;7.57;;;;;;;17.79;86.28;93292.72;5054586;28;20020;-37
2022/09/11 02:00:52;;;;;;;10.43;7.35;;;;;;;17.73;86.87;93277.63;5054311;28;20437;-38
2022/09/11 02:03:26;;;;;;;10.35;6.95;;;;;;;17.83;86.32;93298.56;5054157;28;20551;-37
2022/09/11 02:05:58;;;;;;;7.95;7.03;;;;;;;17.71;85.85;93289.41;5054558;28;20035;-37
2022/09/11 02:08:29;;;;;;;14.60;7.15;;;;;;;17.57;86.15;93280.09;5072037;28;20021;-37
2022/09/11 02:11:02;;;;;;;9.57;7.97;;;;;;;17.47;87.56;93276.63;5054125;28;20074;-37
2022/09/11 02:14:04;;;;;;;9.63;6.72;;;;;;;17.60;87.62;93283.75;5054502;28;20032;-37
2022/09/11 02:16:42;;;;;;;11.40;8.60;;;;;;;17.75;86.79;93283.34;5043790;28;20032;-37
2022/09/11 02:19:11;;;;;;;8.27;6.50;;;;;;;17.77;86.84;93286.25;5054233;28;20100;-36
2022/09/11 02:21:37;;;;;;;11.33;7.80;;;;;;;17.78;86.72;93276.56;5071738;28;20119;-37
2022/09/11 02:24:03;;;;;;;10.05;7.78;;;;;;;17.77;87.11;93280.66;5071688;28;20568;-37
2022/09/11 02:26:31;;;;;;;10.75;7.22;;;;;;;17.69;86.95;93271.78;5053844;28;20059;-37
2022/09/11 02:28:56;;;;;;;10.48;7.45;;;;;;;17.67;87.40;93266.78;5066811;28;20024;-36
2022/09/11 02:31:23;;;;;;;11.45;7.80;;;;;;;17.87;87.02;93275.72;5092121;28;20031;-37
2022/09/11 02:33:49;;;;;;;11.98;7.53;;;;;;;17.85;87.01;93272.81;5092061;28;20419;-37
2022/09/11 02:36:37;;;;;;;10.75;7.80;;;;;;;17.93;87.28;93278.94;5091738;28;20023;-37
2022/09/11 02:39:14;;;;;;;11.63;8.15;;;;;;;17.91;87.28;93268.34;5091554;28;20526;-36
2022/09/11 02:41:54;;;;;;;11.23;7.72;;;;;;;17.96;87.12;93274.91;5091967;28;20032;-36
2022/09/11 02:44:35;;;;;;;13.25;8.75;;;;;;;18.06;86.71;93267.91;5091854;28;20029;-37
2022/09/11 02:47:13;;;;;;;12.20;8.40;;;;;;;18.00;87.29;93273.13;5091576;28;20036;-37
2022/09/11 02:50:07;;;;;;;12.65;8.82;;;;;;;18.02;86.95;93278.84;5073432;28;20087;-37
2022/09/11 02:52:52;;;;;;;10.82;7.57;;;;;;;18.10;86.67;93278.63;5070287;28;20045;-37
2022/09/11 02:55:28;;;;;;;11.32;8.43;;;;;;;18.11;86.41;93266.84;5073641;28;20027;-37
2022/09/11 02:57:55;;;;;;;10.10;7.13;;;;;;;18.12;85.97;93273.16;5073204;28;20055;-36
2022/09/11 03:00:20;;;;;;;10.10;7.55;;;;;;;18.15;85.93;93277.53;5073046;28;20047;-37
2022/09/11 03:02:46;;;;;;;11.48;7.18;;;;;;;18.05;86.59;93279.69;5091168;28;20100;-37
2022/09/11 03:05:12;;;;;;;11.77;8.00;;;;;;;18.01;86.44;93274.59;5073095;28;20026;-37
2022/09/11 03:07:38;;;;;;;14.00;6.95;;;;;;;18.04;86.07;93273.38;5089921;28;20019;-36
2022/09/11 03:10:04;;;;;;;11.07;7.80;;;;;;;18.06;85.45;93276.28;5090944;28;20095;-36
2022/09/11 03:12:29;;;;;;;11.35;7.55;;;;;;;18.02;85.35;93283.69;5091333;28;20024;-36
2022/09/11 03:14:56;;;;;;;15.07;7.82;;;;;;;17.96;85.47;93272.13;5090895;28;20039;-36
2022/09/11 03:17:22;;;;;;;9.90;7.10;;;;;;;17.99;85.31;93277.25;5091036;28;20024;-36
2022/09/11 03:19:47;;;;;;;9.25;7.93;;;;;;;17.98;85.28;93278.56;5090975;28;20099;-36
2022/09/11 03:22:13;;;;;;;11.90;6.95;;;;;;;17.95;84.98;93276.97;5090849;28;20530;-36
2022/09/11 03:24:39;;;;;;;9.43;6.68;;;;;;;17.89;85.23;93284.97;5090930;28;20020;-36
2022/09/11 03:27:05;;;;;;;11.43;7.88;;;;;;;17.96;84.71;93277.72;5070590;28;20031;-36
2022/09/11 03:29:30;;;;;;;8.68;6.85;;;;;;;18.02;84.46;93281.63;5088053;28;20020;-36
2022/09/11 03:31:57;;;;;;;8.55;7.20;;;;;;;18.03;84.46;93282.38;5090950;28;20034;-36
2022/09/11 03:34:23;;;;;;;9.27;6.65;;;;;;;17.97;84.09;93271.53;5090964;28;20039;-36
2022/09/11 03:36:49;;;;;;;10.35;6.47;;;;;;;18.02;83.99;93287.22;5090632;28;20022;-36
2022/09/11 03:39:14;;;;;;;8.55;6.53;;;;;;;17.95;83.72;93282.56;5090539;28;20020;-36
2022/09/11 03:41:39;;;;;;;14.15;7.90;;;;;;;17.91;84.11;93298.34;5090563;28;20024;-36
2022/09/11 03:44:05;;;;;;;10.05;7.63;;;;;;;17.91;84.16;93298.34;5083539;28;20036;-36
2022/09/11 03:46:31;;;;;;;9.32;6.80;;;;;;;17.93;84.18;93306.88;5089709;28;20024;-36
2022/09/11 03:48:58;;;;;;;10.68;7.20;;;;;;;17.94;83.78;93302.72;5075976;28;20029;-36
2022/09/11 03:51:25;;;;;;;13.02;7.63;;;;;;;17.76;83.51;93298.78;5070251;28;20553;-36
2022/09/11 03:53:52;;;;;;;8.80;7.72;;;;;;;17.75;84.01;93303.63;5070238;28;20511;-37
2022/09/11 03:56:17;;;;;;;9.80;7.32;;;;;;;17.77;84.18;93312.13;5070089;28;20020;-36
2022/09/11 03:58:42;;;;;;;9.80;7.40;;;;;;;17.81;83.89;93311.66;5070166;28;20037;-36
2022/09/11 04:01:13;;;;;;;10.88;7.55;;;;;;;17.85;84.60;93315.44;5070412;28;20028;-36
2022/09/11 04:03:39;;;;;;;9.40;7.28;;;;;;;17.82;84.67;93316.63;5070424;28;20111;-36
2022/09/11 04:06:05;;;;;;;12.88;8.40;;;;;;;17.86;84.65;93307.78;5070124;28;20020;-36
2022/09/11 04:08:33;;;;;;;12.20;8.18;;;;;;;17.84;84.47;93311.19;5088054;28;20023;-36
2022/09/11 04:11:01;;;;;;;11.27;7.55;;;;;;;17.86;84.34;93307.78;5087036;28;20119;-36
2022/09/11 04:13:32;;;;;;;9.83;7.83;;;;;;;17.85;84.34;93315.44;5088314;28;20081;-36
2022/09/11 04:16:03;;;;;;;9.63;7.57;;;;;;;17.86;84.74;93305.75;5090301;28;20024;-36
2022/09/11 04:18:29;;;;;;;9.05;8.07;;;;;;;17.84;85.23;93307.66;5090013;28;20024;-36
2022/09/11 04:20:55;;;;;;;9.93;7.70;;;;;;;17.79;85.04;93292.72;5089235;28;20020;-36
2022/09/11 04:23:21;;;;;;;10.27;7.82;;;;;;;17.85;85.26;93312.66;5094533;28;20016;-36
2022/09/11 04:25:46;;;;;;;10.85;8.75;;;;;;;17.88;84.85;93307.94;5085218;28;20090;-36
2022/09/11 04:28:13;;;;;;;11.30;8.23;;;;;;;17.84;84.02;93283.28;5080754;28;20062;-36
2022/09/11 04:30:38;;;;;;;10.20;7.75;;;;;;;17.84;83.99;93302.81;5094061;28;20023;-36
2022/09/11 04:33:05;;;;;;;11.63;8.30;;;;;;;17.77;84.57;93300.22;5094375;28;20020;-36
2022/09/11 04:35:31;;;;;;;13.93;8.73;;;;;;;17.75;85.01;93300.81;5094346;28;20077;-36
2022/09/11 04:37:56;;;;;;;10.05;8.30;;;;;;;17.69;85.75;93303.22;5093836;28;20024;-36
2022/09/11 04:40:22;;;;;;;12.18;8.82;;;;;;;17.61;86.63;93305.47;5094233;28;20161;-36
2022/09/11 04:42:47;;;;;;;10.95;8.48;;;;;;;17.54;87.36;93303.63;5093847;28;20056;-36
2022/09/11 04:45:13;;;;;;;9.77;7.88;;;;;;;17.68;85.59;93301.75;5093740;28;20036;-36
2022/09/11 04:47:39;;;;;;;10.05;8.13;;;;;;;17.77;85.63;93306.53;5093807;28;20073;-36
2022/09/11 04:50:06;;;;;;;11.15;8.43;;;;;;;17.87;86.05;93307.19;5093751;28;20387;-36
2022/09/11 04:52:33;;;;;;;17.00;8.30;;;;;;;17.93;85.48;93295.69;5093950;28;20027;-35
2022/09/11 04:54:58;;;;;;;10.75;7.68;;;;;;;17.94;85.55;93302.72;5093899;28;20031;-36
2022/09/11 04:57:24;;;;;;;11.45;8.93;;;;;;;17.95;85.25;93285.34;5092670;28;20475;-36
2022/09/11 04:59:50;;;;;;;12.05;8.98;;;;;;;18.12;85.16;93301.09;5093258;28;20048;-36
2022/09/11 05:02:16;;;;;;;12.93;7.97;;;;;;;18.17;84.57;93295.16;5093428;28;20023;-35
2022/09/11 05:04:41;;;;;;;14.40;9.43;;;;;;;18.19;84.11;93300.16;5075342;28;20020;-36
2022/09/11 05:07:07;;;;;;;13.90;9.70;;;;;;;18.16;83.51;93290.19;5093732;28;20450;-35
2022/09/11 05:09:32;;;;;;;17.00;11.43;;;;;;;18.22;83.03;93309.38;5092818;28;20039;-36
2022/09/11 05:11:58;;;;;;;13.07;9.23;;;;;;;18.22;83.67;93309.38;5093148;28;20052;-36
2022/09/11 05:14:24;;;;;;;14.35;8.80;;;;;;;18.28;83.02;93301.41;5093503;28;20027;-36
2022/09/11 05:16:51;;;;;;;11.88;8.73;;;;;;;18.31;82.63;93302.97;5093269;28;20103;-36
2022/09/11 05:19:17;;;;;;;10.80;8.82;;;;;;;18.34;82.55;93307.38;5085137;28;20082;-36
2022/09/11 05:21:43;;;;;;;13.35;9.23;;;;;;;18.30;83.08;93307.84;5072873;28;20102;-35
2022/09/11 05:24:08;;;;;;;16.55;9.15;;;;;;;18.38;83.23;93304.81;5088261;28;20028;-36
2022/09/11 05:26:35;;;;;;;11.40;7.93;;;;;;;18.45;83.06;93303.91;5077176;28;20028;-36
2022/09/11 05:29:04;;;;;;;11.82;8.10;;;;;;;18.48;82.41;93309.00;5087374;28;20019;-36
2022/09/11 05:31:30;;;;;;;12.77;9.47;;;;;;;18.50;82.47;93308.41;5090387;28;20028;-36
2022/09/11 05:33:57;;;;;;;10.30;8.23;;;;;;;18.51;82.96;93310.63;5079360;28;20040;-36
2022/09/11 05:36:23;;;;;;;13.10;8.98;;;;;;;18.46;83.38;93296.97;5093220;28;20023;-36
2022/09/11 05:38:49;;;;;;;11.10;8.35;;;;;;;18.17;84.07;93292.38;5092602;28;20024;-36
2022/09/11 05:41:15;;;;;;;11.20;8.02;;;;;;;18.24;83.50;93301.88;5092697;28;20028;-36
2022/09/11 05:43:41;;;;;;;13.48;8.57;;;;;;;18.20;84.06;93301.63;5092940;28;20024;-37
2022/09/11 05:46:14;;;;;;;15.52;9.65;;;;;;;18.27;84.22;93302.72;5092899;28;20404;-36
2022/09/11 05:48:40;;;;;;;12.20;8.95;;;;;;;18.15;85.03;93306.22;5092707;28;20102;-36
2022/09/11 05:51:20;;;;;;;14.30;9.45;;;;;;;18.12;85.46;93304.63;5081812;28;20048;-36
2022/09/11 05:53:46;;;;;;;12.70;8.35;;;;;;;18.13;85.63;93306.09;5072548;28;20070;-36
2022/09/11 05:56:17;;;;;;;10.65;8.52;;;;;;;18.24;85.08;93309.50;5072211;28;20036;-36
2022/09/11 05:58:45;;;;;;;13.13;8.07;;;;;;;18.32;84.11;93307.25;5091865;28;20083;-36
2022/09/11 06:01:31;;;;;;;13.73;9.30;;;;;;;18.46;82.40;93306.09;5092434;28;20020;-36
2022/09/11 06:03:56;;;;;;;10.45;7.78;;;;;;;18.51;81.90;93307.06;5073107;28;20036;-36
2022/09/11 06:06:23;;;;;;;11.38;7.80;;;;;;;18.47;82.28;93306.84;5092646;28;20438;-36
2022/09/11 06:08:50;;;;;;;13.32;8.77;;;;;;;18.42;83.53;93305.81;5078354;28;20488;-36
2022/09/11 06:11:17;;;;;;;10.23;8.13;;;;;;;18.57;82.40;93310.97;5079251;28;20051;-36
2022/09/11 06:13:45;;;;;;;10.10;7.68;;;;;;;18.61;81.82;93310.50;5092393;28;20107;-36
2022/09/11 06:16:12;;;;;;;9.40;6.88;;;;;;;18.67;82.04;93310.88;5091626;28;20028;-36
2022/09/11 06:18:38;;;;;;;11.70;8.15;;;;;;;18.68;82.46;93306.75;5091735;28;20082;-36
2022/09/11 06:21:06;;;;;;;9.48;7.70;;;;;;;18.69;82.15;93306.13;5092042;28;20027;-36
2022/09/11 06:23:33;;;;;;;11.57;8.80;;;;;;;18.66;81.50;93312.94;5092041;28;20038;-37
2022/09/11 06:26:10;;;;;;;13.10;7.97;;;;;;;18.71;81.44;93302.75;5080899;28;20052;-36
2022/09/11 06:28:36;;;;;;;10.57;8.15;;;;;;;18.78;81.27;93312.94;5081456;28;20024;-36
2022/09/11 06:31:06;;;;;;;11.63;8.18;;;;;;;18.85;80.56;93301.53;5091810;28;20127;-36
2022/09/11 06:33:34;;;;;;;10.18;7.90;;;;;;;18.78;81.23;93313.69;5084969;28;20428;-36
2022/09/11 06:36:03;;;;;;;15.52;8.48;;;;;;;18.55;81.01;93302.47;5071874;28;20029;-36
2022/09/11 06:38:28;;;;;;;10.00;7.18;;;;;;;18.44;81.66;93285.63;5091639;28;20554;-36
2022/09/11 06:40:55;;;;;;;10.63;7.32;;;;;;;18.60;81.74;93312.56;5091690;28;20112;-36
2022/09/11 06:43:20;;;;;;;10.02;7.47;;;;;;;18.68;80.95;93310.28;5087716;28;20103;-36
2022/09/11 06:45:47;;;;;;;13.63;8.73;;;;;;;18.72;81.35;93315.38;5091282;28;20073;-36
2022/09/11 06:48:14;;;;;;;12.65;8.90;;;;;;;18.81;81.33;93317.34;5089061;28;20027;-36
2022/09/11 06:50:40;;;;;;;8.18;6.65;;;;;;;19.05;78.38;93315.28;5089402;28;20101;-36
2022/09/11 06:53:06;;;;;;;8.23;7.30;;;;;;;19.29;77.30;93316.75;5080356;28;20032;-36
2022/09/11 06:55:32;;;;;;;10.02;7.65;;;;;;;19.55;76.86;93313.47;5073721;28;20039;-36
2022/09/11 06:57:58;;;;;;;7.80;6.57;;;;;;;19.93;75.10;93328.97;5086314;28;20103;-36
2022/09/11 07:00:24;;;;;;;10.75;7.43;;;;;;;20.05;75.21;93331.75;5086865;28;20051;-36
2022/09/11 07:02:52;;;;;;;8.70;6.63;;;;;;;19.93;72.94;93295.34;5091390;28;20038;-36
2022/09/11 07:05:18;;;;;;;12.33;8.70;;;;;;;20.20;73.61;93331.97;5091512;28;20028;-36
2022/09/11 07:07:45;;;;;;;9.70;7.65;;;;;;;20.21;74.25;93336.22;5090962;28;20081;-36
2022/09/11 07:10:10;;;;;;;11.05;8.00;;;;;;;19.88;74.45;93332.16;5090951;28;20483;-36
2022/09/11 07:12:37;;;;;;;8.93;7.55;;;;;;;19.57;74.20;93336.00;5090254;28;20036;-36
2022/09/11 07:15:05;;;;;;;9.93;7.97;;;;;;;19.70;74.69;93323.44;5080002;28;20412;-36
2022/09/11 07:17:31;;;;;;;10.57;7.50;;;;;;;20.76;73.04;93325.22;5088572;28;20047;-36
2022/09/11 07:19:57;;;;;;;9.25;6.50;;;;;;;21.93;65.82;93337.03;5090826;28;20028;-36
2022/09/11 07:22:22;;;;;;;8.73;6.70;;;;;;;23.04;64.07;93343.16;5077150;28;20028;-36
2022/09/11 07:24:48;;;;;;;6.72;6.00;;;;;;;23.88;60.35;93338.50;5083051;28;20082;-37
2022/09/11 07:27:13;;;;;;;6.63;5.75;;;;;;;23.90;60.07;93330.13;5084883;28;20064;-36
2022/09/11 07:29:39;;;;;;;7.75;6.28;;;;;;;23.98;58.98;93336.09;5082102;28;20043;-36
2022/09/11 07:32:05;;;;;;;8.25;5.68;;;;;;;23.81;59.74;93331.16;5087695;28;20065;-36
2022/09/11 07:34:30;;;;;;;6.97;6.15;;;;;;;23.43;59.89;93334.38;5085718;28;20543;-37
2022/09/11 07:36:56;;;;;;;13.10;6.90;;;;;;;22.81;61.35;93340.63;5090864;28;20074;-36
2022/09/11 07:39:21;;;;;;;7.75;6.07;;;;;;;22.09;62.14;93337.84;5084416;28;20514;-36
2022/09/11 07:41:47;;;;;;;8.18;6.05;;;;;;;21.89;63.16;93334.75;5079895;28;20415;-36
2022/09/11 07:44:13;;;;;;;7.43;5.30;;;;;;;22.43;64.16;93343.06;5079363;28;20419;-36
2022/09/11 07:46:40;;;;;;;13.60;5.50;;;;;;;23.16;60.92;93323.97;5070680;28;20522;-36
2022/09/11 07:49:06;;;;;;;8.55;5.50;;;;;;;23.69;58.51;93324.25;5070284;28;20032;-36
2022/09/11 07:51:33;;;;;;;5.60;4.57;;;;;;;24.18;56.95;93315.78;5070265;28;20021;-36
2022/09/11 07:54:00;;;;;;;6.80;4.40;;;;;;;25.42;54.51;93322.88;5070341;28;20419;-37
2022/09/11 07:56:26;;;;;;;5.10;4.60;;;;;;;25.80;52.29;93309.38;5070528;28;20560;-37
2022/09/11 07:58:56;;;;;;;9.27;4.70;;;;;;;26.00;52.51;93315.75;5069854;28;20068;-37
2022/09/11 08:01:28;;;;;;;5.40;3.40;;;;;;;26.18;49.62;93319.25;5075522;28;20039;-36
2022/09/11 08:03:57;;;;;;;5.65;4.50;;;;;;;26.19;49.09;93323.50;5074242;28;20542;-36
2022/09/11 08:06:23;;;;;;;;;;;;;;;26.54;48.63;93331.03;5083352;28;20032;-37
2022/09/11 08:08:53;;;;;;;4.93;4.43;;;;;;;27.62;46.92;93320.28;5079343;28;19954;-37
2022/09/11 08:11:19;;;;;;;6.00;4.25;;;;;;;27.23;47.07;93325.47;5078533;28;20512;-37
2022/09/11 08:13:52;;;;;;;5.90;4.20;;;;;;;26.48;48.31;93325.19;5080719;28;20418;-36
2022/09/11 08:16:19;;;;;;;4.65;4.25;;;;;;;25.97;50.19;93317.03;5079964;28;20043;-36
2022/09/11 08:18:46;;;;;;;5.18;4.47;;;;;;;25.58;51.85;93322.75;5080487;28;20053;-36
2022/09/11 08:21:13;;;;;;;4.70;4.28;;;;;;;25.37;52.54;93321.22;5079931;28;20016;-36
2022/09/11 08:23:40;;;;;;;4.47;4.07;;;;;;;26.12;49.37;93316.19;5079550;28;20051;-37
2022/09/11 08:26:08;;;;;;;5.05;4.28;;;;;;;27.36;47.32;93307.44;5065222;28;20028;-38
2022/09/11 08:28:34;;;;;;;4.50;3.85;;;;;;;28.85;42.11;93300.13;5078862;28;20407;-37
2022/09/11 08:31:00;;;;;;;3.33;3.03;;;;;;;29.55;40.32;93296.03;5080132;28;20035;-37
2022/09/11 08:33:30;;;;;;;4.35;3.17;;;;;;;31.00;38.53;93304.47;5080549;28;20028;-37
2022/09/11 08:36:01;;;;;;;4.95;2.90;;;;;;;31.83;35.71;93306.38;5080683;28;20094;-35
2022/09/11 08:38:26;;;;;;;3.80;3.15;;;;;;;31.64;34.32;93301.84;5078851;28;20040;-35
2022/09/11 08:40:52;;;;;;;4.10;3.28;;;;;;;30.92;36.05;93298.66;5079890;28;20036;-35
2022/09/11 08:43:25;;;;;;;3.63;3.33;;;;;;;29.53;38.66;93298.84;5078474;28;20038;-35
2022/09/11 08:45:55;;;;;;;3.38;2.88;;;;;;;28.46;40.21;93293.47;5064385;28;20031;-37
2022/09/11 08:48:28;;;;;;;3.72;3.22;;;;;;;27.66;41.71;93305.47;5083293;28;20036;-36
2022/09/11 08:50:54;;;;;;;3.63;2.95;;;;;;;27.59;42.55;93301.75;5072139;28;20035;-36
2022/09/11 08:53:19;;;;;;;4.93;2.97;;;;;;;28.83;41.07;93297.22;5080756;28;20024;-37
2022/09/11 08:55:52;;;;;;;2.95;2.65;;;;;;;30.27;38.42;93288.25;5051767;28;20032;-37
2022/09/11 08:58:49;;;;;;;2.97;2.55;;;;;;;31.97;35.61;93291.56;5056843;28;20020;-35
2022/09/11 09:01:24;;;;;;;3.08;2.80;;;;;;;30.98;33.09;93275.94;5075017;28;20442;-34
2022/09/11 09:04:00;;;;;;;2.50;2.15;;;;;;;31.35;33.01;93275.06;5071130;28;20044;-34
2022/09/11 09:06:53;;;;;;;3.28;2.78;;;;;;;31.76;33.53;93279.16;5073172;28;20057;-34
2022/09/11 09:09:18;;;;;;;3.40;2.97;;;;;;;31.71;33.42;93271.97;5093329;28;20494;-35
2022/09/11 09:12:09;;;;;;;3.58;3.25;;;;;;;32.62;32.46;93272.97;5093360;28;20036;-35
2022/09/11 09:14:57;;;;;;;3.33;3.03;;;;;;;32.45;32.95;93277.81;5091787;28;20024;-35
2022/09/11 09:17:24;;;;;;;;;;;;;;;31.09;34.85;93282.50;5094198;28;20099;-35
2022/09/11 09:19:51;;;;;;;3.42;3.13;;;;;;;29.93;37.24;93273.38;5070770;28;19909;-34
2022/09/11 09:22:22;;;;;;;3.67;3.28;;;;;;;28.94;39.25;93279.75;5069149;28;20431;-37
2022/09/11 09:25:00;;;;;;;3.75;2.83;;;;;;;28.20;39.62;93272.22;5092658;28;20034;-37
2022/09/11 09:27:39;;;;;;;3.20;2.90;;;;;;;27.26;41.07;93282.34;5074906;28;20031;-36
2022/09/11 09:30:13;;;;;;;4.18;3.05;;;;;;;26.68;42.20;93283.38;5073132;28;20016;-37
2022/09/11 09:32:43;;;;;;;3.20;2.90;;;;;;;26.07;43.82;93281.34;5088837;28;20055;-37
2022/09/11 09:35:39;;;;;;;2.80;2.58;;;;;;;26.45;44.87;93264.19;5074152;28;20132;-36
2022/09/11 09:38:18;;;;;;;4.78;4.07;;;;;;;26.37;44.49;93264.69;5055027;28;20077;-36
2022/09/11 09:41:02;;;;;;;3.75;3.30;;;;;;;26.12;45.42;93276.56;5065960;28;20085;-37
2022/09/11 09:43:39;;;;;;;4.50;3.70;;;;;;;25.78;46.15;93278.91;5078051;28;20033;-36
2022/09/11 09:46:05;;;;;;;4.57;3.72;;;;;;;25.62;46.38;93264.19;5072602;28;20051;-36
2022/09/11 09:48:38;;;;;;;4.32;3.88;;;;;;;25.40;47.54;93261.28;5072750;28;20488;-36
2022/09/11 09:51:04;;;;;;;4.53;4.07;;;;;;;25.28;47.96;93266.50;5072747;28;20032;-36
2022/09/11 09:53:47;;;;;;;4.47;3.72;;;;;;;25.13;48.28;93258.16;5072645;28;20412;-37
2022/09/11 09:56:15;;;;;;;3.72;3.38;;;;;;;24.73;47.20;93235.47;5056699;28;20031;-36
2022/09/11 09:58:49;;;;;;;3.97;3.57;;;;;;;24.64;48.25;93252.75;5074276;28;20048;-37
2022/09/11 10:01:49;;;;;;;5.75;3.95;;;;;;;24.45;50.37;93259.06;5074458;28;20441;-36
2022/09/11 10:04:29;;;;;;;4.00;3.63;;;;;;;24.19;50.51;93261.53;5086459;28;20031;-36
2022/09/11 10:07:09;;;;;;;4.18;3.78;;;;;;;24.00;50.59;93248.75;5073613;28;20112;-36
2022/09/11 10:09:35;;;;;;;4.45;3.78;;;;;;;24.00;51.00;93259.31;5070262;28;20394;-37
2022/09/11 10:12:05;;;;;;;3.88;3.50;;;;;;;25.23;49.00;93250.78;5078768;28;20046;-37
2022/09/11 10:14:44;;;;;;;3.53;3.22;;;;;;;27.25;42.65;93248.97;5072175;28;20044;-37
2022/09/11 10:17:41;;;;;;;2.78;2.35;;;;;;;27.80;40.69;93243.47;5053998;28;20052;-37
2022/09/11 10:20:26;;;;;;;2.45;2.25;;;;;;;27.53;38.22;93242.03;5075774;28;20030;-37
2022/09/11 10:22:53;;;;;;;3.22;2.92;;;;;;;26.69;40.87;93247.97;5087359;28;20388;-37
2022/09/11 10:25:26;;;;;;;2.70;2.47;;;;;;;26.99;40.32;93235.50;5068901;28;20067;-36
2022/09/11 10:28:04;;;;;;;3.00;2.78;;;;;;;28.63;37.86;93231.41;5057976;28;20035;-37
2022/09/11 10:30:37;;;;;;;2.30;2.10;;;;;;;30.14;34.97;93232.47;5073873;28;20411;-37
2022/09/11 10:33:05;;;;;;;2.53;2.33;;;;;;;31.45;32.44;93230.97;5086801;28;20050;-37
2022/09/11 10:35:35;;;;;;;3.05;2.75;;;;;;;32.48;31.72;93232.84;5083080;28;20411;-35
2022/09/11 10:38:17;;;;;;;2.30;2.10;;;;;;;33.22;31.02;93230.56;5063990;28;20031;-34
2022/09/11 10:41:18;;;;;;;2.45;2.20;;;;;;;32.25;31.18;93231.88;5091442;28;20032;-35
2022/09/11 10:44:00;;;;;;;3.47;2.70;;;;;;;31.00;33.25;93236.03;5011011;28;20051;-35
2022/09/11 10:46:38;;;;;;;3.17;2.88;;;;;;;29.72;36.50;93238.06;5064202;28;20031;-34
2022/09/11 10:49:04;;;;;;;4.70;3.63;;;;;;;29.19;37.28;93241.25;5091352;28;20030;-37
2022/09/11 10:51:38;;;;;;;3.55;3.25;;;;;;;29.18;37.26;93240.50;5087645;28;20032;-37
2022/09/11 10:54:12;;;;;;;3.10;2.70;;;;;;;28.96;37.43;93239.25;5052351;28;20081;-37
2022/09/11 10:56:48;;;;;;;2.90;2.40;;;;;;;28.37;36.17;93235.03;5056925;28;20024;-36
2022/09/11 10:59:17;;;;;;;3.28;2.83;;;;;;;27.42;38.03;93216.88;5051353;28;20048;-36
2022/09/11 11:01:43;;;;;;;3.03;2.67;;;;;;;26.94;39.59;93225.41;5075516;28;20042;-37
2022/09/11 11:04:11;;;;;;;4.65;3.10;;;;;;;26.39;40.48;93225.09;5051323;28;20099;-36
2022/09/11 11:06:47;;;;;;;4.28;3.50;;;;;;;25.96;42.46;93227.91;5069387;28;20039;-37
2022/09/11 11:09:58;;;;;;;3.40;2.92;;;;;;;25.58;42.28;93225.22;5078364;28;20110;-36
2022/09/11 11:12:31;;;;;;;4.38;3.13;;;;;;;25.29;43.60;93216.38;5043708;28;20046;-36
2022/09/11 11:15:21;;;;;;;4.35;3.28;;;;;;;25.16;43.82;93212.38;5089045;28;20088;-36
2022/09/11 11:18:00;;;;;;;3.63;3.33;;;;;;;25.29;44.15;93210.72;5087647;28;20057;-37
2022/09/11 11:20:31;;;;;;;3.40;3.13;;;;;;;25.18;43.92;93203.97;5088067;28;20047;-36
2022/09/11 11:23:36;;;;;;;3.08;2.78;;;;;;;24.97;44.30;93204.59;5089760;28;20050;-37
2022/09/11 11:26:10;;;;;;;3.53;3.00;;;;;;;25.24;43.24;93192.88;5060298;28;20051;-36
2022/09/11 11:29:24;;;;;;;2.60;2.40;;;;;;;25.29;43.87;93202.25;5079003;28;20026;-36
2022/09/11 11:32:06;;;;;;;2.80;2.58;;;;;;;25.43;43.70;93197.81;5014722;28;20051;-36
2022/09/11 11:34:47;;;;;;;3.75;3.45;;;;;;;25.58;45.03;93192.69;5052719;28;20032;-36
2022/09/11 11:37:18;;;;;;;3.22;2.92;;;;;;;25.58;42.69;93182.81;5051588;28;20115;-37
2022/09/11 11:39:57;;;;;;;3.58;3.28;;;;;;;25.45;43.30;93197.16;5070435;28;20024;-37
2022/09/11 11:42:37;;;;;;;4.03;3.28;;;;;;;25.21;42.99;93188.53;5069800;28;20028;-37
2022/09/11 11:45:17;;;;;;;3.60;3.30;;;;;;;25.15;44.33;93188.31;5090814;28;20035;-36
2022/09/11 11:47:43;;;;;;;3.60;2.88;;;;;;;24.95;44.17;93184.75;5067146;28;20134;-36